CheckWX is a tool to help pilots better visualize weather data.  It is not intended as a substitute for an official pre-flight weather briefing.

18:10:53 UTC

KLLQ METAR
Monticello Municipal / Ellis Field Airport
Monticello, Arkansas, USA
Current

18 mins ago

KLLQ 171753Z AUTO VRB06KT 10SM CLR 13/01 A3006 RMK AO2 SLP180 T01330006 10139 21006 58014
Observed
Nov-17 @ 17:53 UTC
Wind
  • Variable at 6 KTS
Visibility
10 SM
Flight Rules
VFR
Cloud Levels
  • Clear skies
Temperature
13°C / 55°F
Dewpoint
C / 34°F
Humidity
44%
Altimeter
30.06" Hg
Pressure
1017.92 hPa
Previous

1 hour ago

KLLQ 171653Z AUTO 21004KT 10SM CLR 13/01 A3009 RMK AO2 SLP189 T01330011
Observed
Nov-17 @ 16:53 UTC
Wind
  • 210° at 4 KTS
Visibility
10 SM
Flight Rules
VFR
Cloud Levels
  • Clear skies
Temperature
13°C / 55°F
Dewpoint
C / 34°F
Humidity
44%
Altimeter
30.09" Hg
Pressure
1018.92 hPa
Previous

2 hours ago

KLLQ 171553Z AUTO 25003KT 10SM CLR 12/03 A3011 RMK AO2 SLP196 T01170033
Observed
Nov-17 @ 15:53 UTC
Wind
  • 250° at 3 KTS
Visibility
10 SM
Flight Rules
VFR
Cloud Levels
  • Clear skies
Temperature
12°C / 54°F
Dewpoint
C / 37°F
Humidity
54%
Altimeter
30.11" Hg
Pressure
1019.62 hPa